sensor_id;sensor_type;location;lat;lon;timestamp;temperature;humidity
53208;DHT22;39093;52.788;6.940;2023-07-22T00:01:30;14.60;99.90
53208;DHT22;39093;52.788;6.940;2023-07-22T00:03:58;14.60;99.90
53208;DHT22;39093;52.788;6.940;2023-07-22T00:06:26;14.60;99.90
53208;DHT22;39093;52.788;6.940;2023-07-22T00:08:53;14.50;99.90
53208;DHT22;39093;52.788;6.940;2023-07-22T00:11:20;14.50;99.90
53208;DHT22;39093;52.788;6.940;2023-07-22T00:13:47;14.50;99.90
53208;DHT22;39093;52.788;6.940;2023-07-22T00:16:15;14.50;99.90
53208;DHT22;39093;52.788;6.940;2023-07-22T00:18:42;14.50;99.90
53208;DHT22;39093;52.788;6.940;2023-07-22T00:21:08;14.40;99.90
53208;DHT22;39093;52.788;6.940;2023-07-22T00:23:35;14.40;99.90
53208;DHT22;39093;52.788;6.940;2023-07-22T00:26:02;14.40;99.90
53208;DHT22;39093;52.788;6.940;2023-07-22T00:28:29;14.30;99.90
53208;DHT22;39093;52.788;6.940;2023-07-22T00:30:56;14.30;99.90
53208;DHT22;39093;52.788;6.940;2023-07-22T00:33:24;14.30;99.90
53208;DHT22;39093;52.788;6.940;2023-07-22T00:35:51;14.30;99.90
53208;DHT22;39093;52.788;6.940;2023-07-22T00:38:18;14.30;99.90
53208;DHT22;39093;52.788;6.940;2023-07-22T00:40:46;14.30;99.90
53208;DHT22;39093;52.788;6.940;2023-07-22T00:43:13;14.30;99.90
53208;DHT22;39093;52.788;6.940;2023-07-22T00:45:40;14.20;99.90
53208;DHT22;39093;52.788;6.940;2023-07-22T00:48:08;14.20;99.90
53208;DHT22;39093;52.788;6.940;2023-07-22T00:50:36;14.20;99.90
53208;DHT22;39093;52.788;6.940;2023-07-22T00:53:04;14.20;99.90
53208;DHT22;39093;52.788;6.940;2023-07-22T00:55:33;14.20;99.90
53208;DHT22;39093;52.788;6.940;2023-07-22T00:58:01;14.10;99.90
53208;DHT22;39093;52.788;6.940;2023-07-22T01:00:28;14.20;99.90
53208;DHT22;39093;52.788;6.940;2023-07-22T01:02:55;14.10;99.90
53208;DHT22;39093;52.788;6.940;2023-07-22T01:05:22;14.10;99.90
53208;DHT22;39093;52.788;6.940;2023-07-22T01:07:50;14.10;99.90
53208;DHT22;39093;52.788;6.940;2023-07-22T01:10:17;14.10;99.90
53208;DHT22;39093;52.788;6.940;2023-07-22T01:12:45;14.10;99.90
53208;DHT22;39093;52.788;6.940;2023-07-22T01:15:12;14.00;99.90
53208;DHT22;39093;52.788;6.940;2023-07-22T01:17:38;14.00;99.90
53208;DHT22;39093;52.788;6.940;2023-07-22T01:20:07;14.00;99.90
53208;DHT22;39093;52.788;6.940;2023-07-22T01:22:34;14.00;99.90
53208;DHT22;39093;52.788;6.940;2023-07-22T01:25:03;14.00;99.90
53208;DHT22;39093;52.788;6.940;2023-07-22T01:27:30;13.90;99.90
53208;DHT22;39093;52.788;6.940;2023-07-22T01:29:57;14.00;99.90
53208;DHT22;39093;52.788;6.940;2023-07-22T01:32:24;13.90;99.90
53208;DHT22;39093;52.788;6.940;2023-07-22T01:34:51;13.80;99.90
53208;DHT22;39093;52.788;6.940;2023-07-22T01:37:18;13.80;99.90
53208;DHT22;39093;52.788;6.940;2023-07-22T01:39:45;13.80;99.90
53208;DHT22;39093;52.788;6.940;2023-07-22T01:42:17;13.80;99.90
53208;DHT22;39093;52.788;6.940;2023-07-22T01:44:44;13.80;99.90
53208;DHT22;39093;52.788;6.940;2023-07-22T01:47:11;13.80;99.90
53208;DHT22;39093;52.788;6.940;2023-07-22T01:49:38;13.80;99.90
53208;DHT22;39093;52.788;6.940;2023-07-22T01:52:05;13.80;99.90
53208;DHT22;39093;52.788;6.940;2023-07-22T01:54:32;13.80;99.90
53208;DHT22;39093;52.788;6.940;2023-07-22T01:56:59;13.80;99.90
53208;DHT22;39093;52.788;6.940;2023-07-22T01:59:26;13.80;99.90
53208;DHT22;39093;52.788;6.940;2023-07-22T02:01:53;13.80;99.90
53208;DHT22;39093;52.788;6.940;2023-07-22T02:04:20;13.80;99.90
53208;DHT22;39093;52.788;6.940;2023-07-22T02:06:47;13.70;99.90
53208;DHT22;39093;52.788;6.940;2023-07-22T02:09:14;13.70;99.90
53208;DHT22;39093;52.788;6.940;2023-07-22T02:11:41;13.70;99.90
53208;DHT22;39093;52.788;6.940;2023-07-22T02:14:08;13.70;99.90
53208;DHT22;39093;52.788;6.940;2023-07-22T02:16:36;13.70;99.90
53208;DHT22;39093;52.788;6.940;2023-07-22T02:19:06;13.60;99.90
53208;DHT22;39093;52.788;6.940;2023-07-22T02:21:33;13.60;99.90
53208;DHT22;39093;52.788;6.940;2023-07-22T02:24:00;13.60;99.90
53208;DHT22;39093;52.788;6.940;2023-07-22T02:26:26;13.60;99.90
53208;DHT22;39093;52.788;6.940;2023-07-22T02:28:54;13.60;99.90
53208;DHT22;39093;52.788;6.940;2023-07-22T02:31:21;13.60;99.90
53208;DHT22;39093;52.788;6.940;2023-07-22T02:33:49;13.60;99.90
53208;DHT22;39093;52.788;6.940;2023-07-22T02:36:16;13.60;99.90
53208;DHT22;39093;52.788;6.940;2023-07-22T02:38:43;13.60;99.90
53208;DHT22;39093;52.788;6.940;2023-07-22T02:41:10;13.60;99.90
53208;DHT22;39093;52.788;6.940;2023-07-22T02:43:37;13.70;99.90
53208;DHT22;39093;52.788;6.940;2023-07-22T02:46:05;13.70;99.90
53208;DHT22;39093;52.788;6.940;2023-07-22T02:48:34;13.70;99.90
53208;DHT22;39093;52.788;6.940;2023-07-22T02:51:06;13.70;99.90
53208;DHT22;39093;52.788;6.940;2023-07-22T02:53:34;13.70;99.90
53208;DHT22;39093;52.788;6.940;2023-07-22T02:56:04;13.60;99.90
53208;DHT22;39093;52.788;6.940;2023-07-22T02:58:31;13.60;99.90
53208;DHT22;39093;52.788;6.940;2023-07-22T03:00:59;13.60;99.90
53208;DHT22;39093;52.788;6.940;2023-07-22T03:03:26;13.60;99.90
53208;DHT22;39093;52.788;6.940;2023-07-22T03:05:53;13.60;99.90
53208;DHT22;39093;52.788;6.940;2023-07-22T03:08:20;13.60;99.90
53208;DHT22;39093;52.788;6.940;2023-07-22T03:10:47;13.60;99.90
53208;DHT22;39093;52.788;6.940;2023-07-22T03:13:15;13.60;99.90
53208;DHT22;39093;52.788;6.940;2023-07-22T03:15:43;13.60;99.90
53208;DHT22;39093;52.788;6.940;2023-07-22T03:18:10;13.60;99.90
53208;DHT22;39093;52.788;6.940;2023-07-22T03:20:38;13.60;99.90
53208;DHT22;39093;52.788;6.940;2023-07-22T03:23:06;13.60;99.90
53208;DHT22;39093;52.788;6.940;2023-07-22T03:25:34;13.50;99.90
53208;DHT22;39093;52.788;6.940;2023-07-22T03:28:04;13.60;99.90
53208;DHT22;39093;52.788;6.940;2023-07-22T03:30:31;13.60;99.90
53208;DHT22;39093;52.788;6.940;2023-07-22T03:32:59;13.60;99.90
53208;DHT22;39093;52.788;6.940;2023-07-22T03:35:27;13.60;99.90
53208;DHT22;39093;52.788;6.940;2023-07-22T03:37:55;13.50;99.90
53208;DHT22;39093;52.788;6.940;2023-07-22T03:40:22;13.60;99.90
53208;DHT22;39093;52.788;6.940;2023-07-22T03:42:55;13.60;99.90
53208;DHT22;39093;52.788;6.940;2023-07-22T03:45:22;13.60;99.90
53208;DHT22;39093;52.788;6.940;2023-07-22T03:47:56;13.60;99.90
53208;DHT22;39093;52.788;6.940;2023-07-22T03:50:24;13.60;99.90
53208;DHT22;39093;52.788;6.940;2023-07-22T03:52:51;13.70;99.90
53208;DHT22;39093;52.788;6.940;2023-07-22T03:55:18;13.70;99.90
53208;DHT22;39093;52.788;6.940;2023-07-22T03:57:46;13.70;99.90
53208;DHT22;39093;52.788;6.940;2023-07-22T04:00:13;13.70;99.90
53208;DHT22;39093;52.788;6.940;2023-07-22T04:02:40;13.80;99.90
53208;DHT22;39093;52.788;6.940;2023-07-22T04:05:08;13.70;99.90
53208;DHT22;39093;52.788;6.940;2023-07-22T04:07:35;13.70;99.90
53208;DHT22;39093;52.788;6.940;2023-07-22T04:10:02;13.80;99.90
53208;DHT22;39093;52.788;6.940;2023-07-22T04:12:33;13.80;99.90
53208;DHT22;39093;52.788;6.940;2023-07-22T04:15:00;13.70;99.90
53208;DHT22;39093;52.788;6.940;2023-07-22T04:17:27;13.70;99.90
53208;DHT22;39093;52.788;6.940;2023-07-22T04:19:54;13.90;99.90
53208;DHT22;39093;52.788;6.940;2023-07-22T04:22:21;13.90;99.90
53208;DHT22;39093;52.788;6.940;2023-07-22T04:24:48;13.90;99.90
53208;DHT22;39093;52.788;6.940;2023-07-22T04:27:16;13.90;99.90
53208;DHT22;39093;52.788;6.940;2023-07-22T04:29:43;13.90;99.90
53208;DHT22;39093;52.788;6.940;2023-07-22T04:32:10;14.00;99.90
53208;DHT22;39093;52.788;6.940;2023-07-22T04:34:37;14.00;99.90
53208;DHT22;39093;52.788;6.940;2023-07-22T04:37:05;14.00;99.90
53208;DHT22;39093;52.788;6.940;2023-07-22T04:39:32;14.00;99.90
53208;DHT22;39093;52.788;6.940;2023-07-22T04:41:59;14.00;99.90
53208;DHT22;39093;52.788;6.940;2023-07-22T04:44:27;14.10;99.90
53208;DHT22;39093;52.788;6.940;2023-07-22T04:46:53;14.10;99.90
53208;DHT22;39093;52.788;6.940;2023-07-22T04:49:21;14.10;99.90
53208;DHT22;39093;52.788;6.940;2023-07-22T04:51:49;14.10;99.90
53208;DHT22;39093;52.788;6.940;2023-07-22T04:54:17;14.20;99.90
53208;DHT22;39093;52.788;6.940;2023-07-22T04:56:45;14.20;99.90
53208;DHT22;39093;52.788;6.940;2023-07-22T04:59:12;14.10;99.90
53208;DHT22;39093;52.788;6.940;2023-07-22T05:01:40;14.10;99.90
53208;DHT22;39093;52.788;6.940;2023-07-22T05:04:08;14.20;99.90
53208;DHT22;39093;52.788;6.940;2023-07-22T05:06:35;14.20;99.90
53208;DHT22;39093;52.788;6.940;2023-07-22T05:09:03;14.30;99.90
53208;DHT22;39093;52.788;6.940;2023-07-22T05:11:30;14.20;99.90
53208;DHT22;39093;52.788;6.940;2023-07-22T05:13:57;14.30;99.90
53208;DHT22;39093;52.788;6.940;2023-07-22T05:16:24;14.30;99.90
53208;DHT22;39093;52.788;6.940;2023-07-22T05:18:52;14.40;99.90
53208;DHT22;39093;52.788;6.940;2023-07-22T05:21:19;14.40;99.90
53208;DHT22;39093;52.788;6.940;2023-07-22T05:23:46;14.40;99.90
53208;DHT22;39093;52.788;6.940;2023-07-22T05:26:13;14.40;99.90
53208;DHT22;39093;52.788;6.940;2023-07-22T05:28:40;14.40;99.90
53208;DHT22;39093;52.788;6.940;2023-07-22T05:31:07;14.50;99.90
53208;DHT22;39093;52.788;6.940;2023-07-22T05:33:34;14.60;99.90
53208;DHT22;39093;52.788;6.940;2023-07-22T05:36:01;14.50;99.90
53208;DHT22;39093;52.788;6.940;2023-07-22T05:38:28;14.50;99.90
53208;DHT22;39093;52.788;6.940;2023-07-22T05:40:54;14.50;99.90
53208;DHT22;39093;52.788;6.940;2023-07-22T05:43:22;14.50;99.90
53208;DHT22;39093;52.788;6.940;2023-07-22T05:45:49;14.60;99.90
53208;DHT22;39093;52.788;6.940;2023-07-22T05:48:16;14.50;99.90
53208;DHT22;39093;52.788;6.940;2023-07-22T05:50:46;14.50;99.90
53208;DHT22;39093;52.788;6.940;2023-07-22T05:53:14;14.60;99.90
53208;DHT22;39093;52.788;6.940;2023-07-22T05:55:41;14.50;99.90
53208;DHT22;39093;52.788;6.940;2023-07-22T05:58:15;14.50;99.90
53208;DHT22;39093;52.788;6.940;2023-07-22T06:00:43;14.50;99.90
53208;DHT22;39093;52.788;6.940;2023-07-22T06:03:09;14.60;99.90
53208;DHT22;39093;52.788;6.940;2023-07-22T06:05:37;14.60;99.90
53208;DHT22;39093;52.788;6.940;2023-07-22T06:08:04;14.60;99.90
53208;DHT22;39093;52.788;6.940;2023-07-22T06:10:31;14.60;99.90
53208;DHT22;39093;52.788;6.940;2023-07-22T06:12:58;14.50;99.90
53208;DHT22;39093;52.788;6.940;2023-07-22T06:15:25;14.50;99.90
53208;DHT22;39093;52.788;6.940;2023-07-22T06:17:52;14.60;99.90
53208;DHT22;39093;52.788;6.940;2023-07-22T06:20:19;14.60;99.90
53208;DHT22;39093;52.788;6.940;2023-07-22T06:22:46;14.60;99.90
53208;DHT22;39093;52.788;6.940;2023-07-22T06:25:13;14.60;99.90
53208;DHT22;39093;52.788;6.940;2023-07-22T06:27:40;14.60;99.90
53208;DHT22;39093;52.788;6.940;2023-07-22T06:30:07;14.70;99.90
53208;DHT22;39093;52.788;6.940;2023-07-22T06:32:37;14.70;99.90
53208;DHT22;39093;52.788;6.940;2023-07-22T06:35:04;14.70;99.90
53208;DHT22;39093;52.788;6.940;2023-07-22T06:37:31;14.70;99.90
53208;DHT22;39093;52.788;6.940;2023-07-22T06:39:58;14.70;99.90
53208;DHT22;39093;52.788;6.940;2023-07-22T06:42:25;14.70;99.90
53208;DHT22;39093;52.788;6.940;2023-07-22T06:44:54;14.80;99.90
53208;DHT22;39093;52.788;6.940;2023-07-22T06:47:24;14.80;99.90
53208;DHT22;39093;52.788;6.940;2023-07-22T06:49:51;14.80;99.90
53208;DHT22;39093;52.788;6.940;2023-07-22T06:52:18;14.80;99.90
53208;DHT22;39093;52.788;6.940;2023-07-22T06:54:44;14.80;99.90
53208;DHT22;39093;52.788;6.940;2023-07-22T06:57:12;14.90;99.90
53208;DHT22;39093;52.788;6.940;2023-07-22T06:59:39;14.90;99.90
53208;DHT22;39093;52.788;6.940;2023-07-22T07:02:06;14.90;99.90
53208;DHT22;39093;52.788;6.940;2023-07-22T07:04:33;15.00;99.90
53208;DHT22;39093;52.788;6.940;2023-07-22T07:07:02;15.00;99.90
53208;DHT22;39093;52.788;6.940;2023-07-22T07:09:29;15.10;99.90
53208;DHT22;39093;52.788;6.940;2023-07-22T07:11:56;15.10;99.90
53208;DHT22;39093;52.788;6.940;2023-07-22T07:14:24;15.20;99.90
53208;DHT22;39093;52.788;6.940;2023-07-22T07:16:51;15.20;99.90
53208;DHT22;39093;52.788;6.940;2023-07-22T07:19:18;15.20;99.90
53208;DHT22;39093;52.788;6.940;2023-07-22T07:21:45;15.20;99.90
53208;DHT22;39093;52.788;6.940;2023-07-22T07:24:12;15.20;99.90
53208;DHT22;39093;52.788;6.940;2023-07-22T07:26:39;15.30;99.90
53208;DHT22;39093;52.788;6.940;2023-07-22T07:29:07;15.30;99.90
53208;DHT22;39093;52.788;6.940;2023-07-22T07:31:34;15.40;99.90
53208;DHT22;39093;52.788;6.940;2023-07-22T07:34:01;15.50;99.90
53208;DHT22;39093;52.788;6.940;2023-07-22T07:36:28;15.60;99.90
53208;DHT22;39093;52.788;6.940;2023-07-22T07:38:58;15.70;99.90
53208;DHT22;39093;52.788;6.940;2023-07-22T07:41:25;15.70;99.90
53208;DHT22;39093;52.788;6.940;2023-07-22T07:43:51;15.80;99.90
53208;DHT22;39093;52.788;6.940;2023-07-22T07:46:26;15.80;99.90
53208;DHT22;39093;52.788;6.940;2023-07-22T07:48:58;16.00;99.90
53208;DHT22;39093;52.788;6.940;2023-07-22T07:51:29;16.00;99.90
53208;DHT22;39093;52.788;6.940;2023-07-22T07:53:57;16.00;99.90
53208;DHT22;39093;52.788;6.940;2023-07-22T07:56:27;16.10;99.90
53208;DHT22;39093;52.788;6.940;2023-07-22T07:58:56;16.20;99.90
53208;DHT22;39093;52.788;6.940;2023-07-22T08:01:23;16.20;99.90
53208;DHT22;39093;52.788;6.940;2023-07-22T08:03:50;16.30;99.90
53208;DHT22;39093;52.788;6.940;2023-07-22T08:06:20;16.50;99.90
53208;DHT22;39093;52.788;6.940;2023-07-22T08:08:47;16.70;99.90
53208;DHT22;39093;52.788;6.940;2023-07-22T08:11:14;16.70;99.90
53208;DHT22;39093;52.788;6.940;2023-07-22T08:13:43;16.90;99.90
53208;DHT22;39093;52.788;6.940;2023-07-22T08:16:12;17.10;99.90
53208;DHT22;39093;52.788;6.940;2023-07-22T08:18:39;17.30;99.90
53208;DHT22;39093;52.788;6.940;2023-07-22T08:21:07;17.40;99.90
53208;DHT22;39093;52.788;6.940;2023-07-22T08:23:36;17.50;99.90
53208;DHT22;39093;52.788;6.940;2023-07-22T08:26:04;17.60;99.90
53208;DHT22;39093;52.788;6.940;2023-07-22T08:28:33;17.60;99.90
53208;DHT22;39093;52.788;6.940;2023-07-22T08:31:03;17.70;99.90
53208;DHT22;39093;52.788;6.940;2023-07-22T08:33:30;17.70;99.90
53208;DHT22;39093;52.788;6.940;2023-07-22T08:36:00;17.80;99.90
53208;DHT22;39093;52.788;6.940;2023-07-22T08:38:29;17.90;99.90
53208;DHT22;39093;52.788;6.940;2023-07-22T08:40:56;17.90;99.90
53208;DHT22;39093;52.788;6.940;2023-07-22T08:43:23;17.90;99.90
53208;DHT22;39093;52.788;6.940;2023-07-22T08:45:52;17.90;99.90
53208;DHT22;39093;52.788;6.940;2023-07-22T08:48:20;18.10;99.90
53208;DHT22;39093;52.788;6.940;2023-07-22T08:53:35;18.20;99.90
53208;DHT22;39093;52.788;6.940;2023-07-22T08:56:04;18.30;99.90
53208;DHT22;39093;52.788;6.940;2023-07-22T08:58:32;18.60;99.90
53208;DHT22;39093;52.788;6.940;2023-07-22T09:00:59;18.70;99.90
53208;DHT22;39093;52.788;6.940;2023-07-22T09:03:27;18.90;99.90
53208;DHT22;39093;52.788;6.940;2023-07-22T09:05:55;19.00;99.90
53208;DHT22;39093;52.788;6.940;2023-07-22T09:08:22;19.00;99.90
53208;DHT22;39093;52.788;6.940;2023-07-22T09:10:50;19.10;99.90
53208;DHT22;39093;52.788;6.940;2023-07-22T09:13:18;19.00;99.90
53208;DHT22;39093;52.788;6.940;2023-07-22T09:15:46;19.00;99.90
53208;DHT22;39093;52.788;6.940;2023-07-22T09:18:14;19.10;99.90
53208;DHT22;39093;52.788;6.940;2023-07-22T09:20:44;19.10;99.90
53208;DHT22;39093;52.788;6.940;2023-07-22T09:23:11;19.10;99.90
53208;DHT22;39093;52.788;6.940;2023-07-22T09:25:41;19.10;99.90
53208;DHT22;39093;52.788;6.940;2023-07-22T09:28:09;19.10;99.90
53208;DHT22;39093;52.788;6.940;2023-07-22T09:30:38;19.10;99.90
53208;DHT22;39093;52.788;6.940;2023-07-22T09:33:07;19.00;99.90
53208;DHT22;39093;52.788;6.940;2023-07-22T09:35:45;18.90;99.90
53208;DHT22;39093;52.788;6.940;2023-07-22T09:38:12;18.70;99.90
53208;DHT22;39093;52.788;6.940;2023-07-22T09:40:42;18.50;99.90
53208;DHT22;39093;52.788;6.940;2023-07-22T09:43:10;18.40;99.90
53208;DHT22;39093;52.788;6.940;2023-07-22T09:45:38;18.20;99.90
53208;DHT22;39093;52.788;6.940;2023-07-22T09:48:05;18.20;99.90
53208;DHT22;39093;52.788;6.940;2023-07-22T09:50:36;17.90;99.90
53208;DHT22;39093;52.788;6.940;2023-07-22T09:53:04;17.70;99.90
53208;DHT22;39093;52.788;6.940;2023-07-22T09:55:34;17.50;99.90
53208;DHT22;39093;52.788;6.940;2023-07-22T09:58:05;17.30;99.90
53208;DHT22;39093;52.788;6.940;2023-07-22T10:00:35;17.10;99.90
53208;DHT22;39093;52.788;6.940;2023-07-22T10:03:04;17.00;99.90
53208;DHT22;39093;52.788;6.940;2023-07-22T10:05:38;16.90;99.90
53208;DHT22;39093;52.788;6.940;2023-07-22T10:08:06;16.90;99.90
53208;DHT22;39093;52.788;6.940;2023-07-22T10:10:35;16.80;99.90
53208;DHT22;39093;52.788;6.940;2023-07-22T10:13:02;16.70;99.90
53208;DHT22;39093;52.788;6.940;2023-07-22T10:15:32;16.70;99.90
53208;DHT22;39093;52.788;6.940;2023-07-22T10:18:01;16.60;99.90
53208;DHT22;39093;52.788;6.940;2023-07-22T10:20:29;16.50;99.90
53208;DHT22;39093;52.788;6.940;2023-07-22T10:22:56;16.60;99.90
53208;DHT22;39093;52.788;6.940;2023-07-22T10:25:24;16.60;99.90
53208;DHT22;39093;52.788;6.940;2023-07-22T10:27:52;16.60;99.90
53208;DHT22;39093;52.788;6.940;2023-07-22T10:30:20;16.60;99.90
53208;DHT22;39093;52.788;6.940;2023-07-22T10:32:49;16.60;99.90
53208;DHT22;39093;52.788;6.940;2023-07-22T10:35:39;16.60;99.90
53208;DHT22;39093;52.788;6.940;2023-07-22T10:38:12;16.60;99.90
53208;DHT22;39093;52.788;6.940;2023-07-22T10:40:53;16.60;99.90
53208;DHT22;39093;52.788;6.940;2023-07-22T10:45:53;16.60;99.90
53208;DHT22;39093;52.788;6.940;2023-07-22T10:48:23;16.60;99.90
53208;DHT22;39093;52.788;6.940;2023-07-22T10:50:52;16.50;99.90
53208;DHT22;39093;52.788;6.940;2023-07-22T11:04:26;16.30;99.90
53208;DHT22;39093;52.788;6.940;2023-07-22T11:07:06;16.30;99.90
53208;DHT22;39093;52.788;6.940;2023-07-22T11:09:37;16.30;99.90
53208;DHT22;39093;52.788;6.940;2023-07-22T11:14:40;16.30;99.90
53208;DHT22;39093;52.788;6.940;2023-07-22T11:17:08;16.30;99.90
53208;DHT22;39093;52.788;6.940;2023-07-22T11:19:35;16.30;99.90
53208;DHT22;39093;52.788;6.940;2023-07-22T11:22:02;16.20;99.90
53208;DHT22;39093;52.788;6.940;2023-07-22T11:24:32;16.20;99.90
53208;DHT22;39093;52.788;6.940;2023-07-22T11:27:01;16.20;99.90
53208;DHT22;39093;52.788;6.940;2023-07-22T11:29:29;16.20;99.90
53208;DHT22;39093;52.788;6.940;2023-07-22T11:31:56;16.20;99.90
53208;DHT22;39093;52.788;6.940;2023-07-22T11:34:26;16.30;99.90
53208;DHT22;39093;52.788;6.940;2023-07-22T11:36:56;16.30;99.90
53208;DHT22;39093;52.788;6.940;2023-07-22T11:39:26;16.30;99.90
53208;DHT22;39093;52.788;6.940;2023-07-22T11:41:53;16.30;99.90
53208;DHT22;39093;52.788;6.940;2023-07-22T11:44:21;16.20;99.90
53208;DHT22;39093;52.788;6.940;2023-07-22T11:47:00;16.20;99.90
53208;DHT22;39093;52.788;6.940;2023-07-22T11:49:30;16.10;99.90
53208;DHT22;39093;52.788;6.940;2023-07-22T11:52:11;16.10;99.90
53208;DHT22;39093;52.788;6.940;2023-07-22T11:54:42;16.00;99.90
53208;DHT22;39093;52.788;6.940;2023-07-22T11:57:15;15.90;99.90
53208;DHT22;39093;52.788;6.940;2023-07-22T11:59:45;15.90;99.90
53208;DHT22;39093;52.788;6.940;2023-07-22T12:02:26;15.90;99.90
53208;DHT22;39093;52.788;6.940;2023-07-22T12:05:03;15.90;99.90
53208;DHT22;39093;52.788;6.940;2023-07-22T12:07:35;15.80;99.90
53208;DHT22;39093;52.788;6.940;2023-07-22T12:10:06;15.80;99.90
53208;DHT22;39093;52.788;6.940;2023-07-22T12:15:16;15.90;99.90
53208;DHT22;39093;52.788;6.940;2023-07-22T12:20:13;15.90;99.90
53208;DHT22;39093;52.788;6.940;2023-07-22T12:22:45;16.00;99.90
53208;DHT22;39093;52.788;6.940;2023-07-22T12:25:15;16.00;99.90
53208;DHT22;39093;52.788;6.940;2023-07-22T12:27:43;16.00;99.90
53208;DHT22;39093;52.788;6.940;2023-07-22T12:30:11;16.00;99.90
53208;DHT22;39093;52.788;6.940;2023-07-22T12:32:38;16.10;99.90
53208;DHT22;39093;52.788;6.940;2023-07-22T12:35:09;16.10;99.90
53208;DHT22;39093;52.788;6.940;2023-07-22T12:37:36;16.10;99.90
53208;DHT22;39093;52.788;6.940;2023-07-22T12:40:04;16.20;99.90
53208;DHT22;39093;52.788;6.940;2023-07-22T12:42:36;16.20;99.90
53208;DHT22;39093;52.788;6.940;2023-07-22T12:45:04;16.20;99.90
53208;DHT22;39093;52.788;6.940;2023-07-22T12:47:34;16.20;99.90
53208;DHT22;39093;52.788;6.940;2023-07-22T12:50:01;16.10;99.90
53208;DHT22;39093;52.788;6.940;2023-07-22T12:52:28;16.20;99.90
53208;DHT22;39093;52.788;6.940;2023-07-22T12:54:55;16.20;99.90
53208;DHT22;39093;52.788;6.940;2023-07-22T12:57:22;16.10;99.90
53208;DHT22;39093;52.788;6.940;2023-07-22T12:59:49;16.10;99.90
53208;DHT22;39093;52.788;6.940;2023-07-22T13:02:16;16.10;99.90
53208;DHT22;39093;52.788;6.940;2023-07-22T13:04:43;16.10;99.90
53208;DHT22;39093;52.788;6.940;2023-07-22T13:07:11;16.10;99.90
53208;DHT22;39093;52.788;6.940;2023-07-22T13:09:38;16.10;99.90
53208;DHT22;39093;52.788;6.940;2023-07-22T13:12:05;16.10;99.90
53208;DHT22;39093;52.788;6.940;2023-07-22T13:14:32;16.00;99.90
53208;DHT22;39093;52.788;6.940;2023-07-22T13:17:00;16.00;99.90
53208;DHT22;39093;52.788;6.940;2023-07-22T13:19:27;15.90;99.90
53208;DHT22;39093;52.788;6.940;2023-07-22T13:21:56;15.90;99.90
53208;DHT22;39093;52.788;6.940;2023-07-22T13:24:23;15.80;99.90
53208;DHT22;39093;52.788;6.940;2023-07-22T13:26:50;15.70;99.90
53208;DHT22;39093;52.788;6.940;2023-07-22T13:29:17;15.60;99.90
53208;DHT22;39093;52.788;6.940;2023-07-22T13:31:44;15.50;99.90
53208;DHT22;39093;52.788;6.940;2023-07-22T13:34:11;15.50;99.90
53208;DHT22;39093;52.788;6.940;2023-07-22T13:36:38;15.40;99.90
53208;DHT22;39093;52.788;6.940;2023-07-22T13:39:05;15.30;99.90
53208;DHT22;39093;52.788;6.940;2023-07-22T13:41:32;15.30;99.90
53208;DHT22;39093;52.788;6.940;2023-07-22T13:43:59;15.20;99.90
53208;DHT22;39093;52.788;6.940;2023-07-22T13:46:26;15.20;99.90
53208;DHT22;39093;52.788;6.940;2023-07-22T13:48:53;15.20;99.90
53208;DHT22;39093;52.788;6.940;2023-07-22T13:51:20;15.20;99.90
53208;DHT22;39093;52.788;6.940;2023-07-22T13:53:47;15.30;99.90
53208;DHT22;39093;52.788;6.940;2023-07-22T13:56:15;15.30;99.90
53208;DHT22;39093;52.788;6.940;2023-07-22T13:58:41;15.30;99.90
53208;DHT22;39093;52.788;6.940;2023-07-22T14:01:08;15.40;99.90
53208;DHT22;39093;52.788;6.940;2023-07-22T14:03:39;15.40;99.90
53208;DHT22;39093;52.788;6.940;2023-07-22T14:06:06;15.40;99.90
53208;DHT22;39093;52.788;6.940;2023-07-22T14:08:33;15.40;99.90
53208;DHT22;39093;52.788;6.940;2023-07-22T14:11:00;15.50;99.90
53208;DHT22;39093;52.788;6.940;2023-07-22T14:13:27;15.50;99.90
53208;DHT22;39093;52.788;6.940;2023-07-22T14:15:54;15.50;99.90
53208;DHT22;39093;52.788;6.940;2023-07-22T14:18:34;15.60;99.90
53208;DHT22;39093;52.788;6.940;2023-07-22T14:21:01;15.60;99.90
53208;DHT22;39093;52.788;6.940;2023-07-22T14:23:28;15.70;99.90
53208;DHT22;39093;52.788;6.940;2023-07-22T14:25:56;15.70;99.90
53208;DHT22;39093;52.788;6.940;2023-07-22T14:28:22;15.80;99.90
53208;DHT22;39093;52.788;6.940;2023-07-22T14:30:50;15.80;99.90
53208;DHT22;39093;52.788;6.940;2023-07-22T14:33:17;15.70;99.90
53208;DHT22;39093;52.788;6.940;2023-07-22T14:35:44;15.70;99.90
53208;DHT22;39093;52.788;6.940;2023-07-22T14:38:11;15.70;99.90
53208;DHT22;39093;52.788;6.940;2023-07-22T14:40:38;15.70;99.90
53208;DHT22;39093;52.788;6.940;2023-07-22T14:43:05;15.70;99.90
53208;DHT22;39093;52.788;6.940;2023-07-22T14:45:32;15.70;99.90
53208;DHT22;39093;52.788;6.940;2023-07-22T14:47:59;15.70;99.90
53208;DHT22;39093;52.788;6.940;2023-07-22T14:50:28;15.60;99.90
53208;DHT22;39093;52.788;6.940;2023-07-22T14:52:55;15.70;99.90
53208;DHT22;39093;52.788;6.940;2023-07-22T14:55:25;15.70;99.90
53208;DHT22;39093;52.788;6.940;2023-07-22T14:57:52;15.70;99.90
53208;DHT22;39093;52.788;6.940;2023-07-22T15:00:19;15.60;99.90
53208;DHT22;39093;52.788;6.940;2023-07-22T15:02:47;15.70;99.90
53208;DHT22;39093;52.788;6.940;2023-07-22T15:05:14;15.70;99.90
53208;DHT22;39093;52.788;6.940;2023-07-22T15:07:45;15.70;99.90
53208;DHT22;39093;52.788;6.940;2023-07-22T15:10:11;15.70;99.90
53208;DHT22;39093;52.788;6.940;2023-07-22T15:12:39;15.70;99.90
53208;DHT22;39093;52.788;6.940;2023-07-22T15:15:06;15.70;99.90
53208;DHT22;39093;52.788;6.940;2023-07-22T15:17:33;15.60;99.90
53208;DHT22;39093;52.788;6.940;2023-07-22T15:20:00;15.60;99.90
53208;DHT22;39093;52.788;6.940;2023-07-22T15:22:27;15.60;99.90
53208;DHT22;39093;52.788;6.940;2023-07-22T15:24:55;15.50;99.90
53208;DHT22;39093;52.788;6.940;2023-07-22T15:27:22;15.60;99.90
53208;DHT22;39093;52.788;6.940;2023-07-22T15:29:49;15.60;99.90
53208;DHT22;39093;52.788;6.940;2023-07-22T15:32:16;15.60;99.90
53208;DHT22;39093;52.788;6.940;2023-07-22T15:34:43;15.60;99.90
53208;DHT22;39093;52.788;6.940;2023-07-22T15:37:10;15.60;99.90
53208;DHT22;39093;52.788;6.940;2023-07-22T15:39:37;15.60;99.90
53208;DHT22;39093;52.788;6.940;2023-07-22T15:42:04;15.50;99.90
53208;DHT22;39093;52.788;6.940;2023-07-22T15:44:31;15.60;99.90
53208;DHT22;39093;52.788;6.940;2023-07-22T15:46:58;15.60;99.90
53208;DHT22;39093;52.788;6.940;2023-07-22T15:49:25;15.50;99.90
53208;DHT22;39093;52.788;6.940;2023-07-22T15:51:52;15.60;99.90
53208;DHT22;39093;52.788;6.940;2023-07-22T15:54:19;15.60;99.90
53208;DHT22;39093;52.788;6.940;2023-07-22T15:56:46;15.60;99.90
53208;DHT22;39093;52.788;6.940;2023-07-22T15:59:20;15.70;99.90